createdAt,value
2017-10-09T00:06:32.237Z,0
2017-10-09T00:16:47.709Z,0
2017-10-09T00:27:03.139Z,0
2017-10-09T00:37:16.867Z,0
2017-10-09T00:47:32.329Z,0
2017-10-09T00:57:46.239Z,0
2017-10-09T01:08:00.764Z,0
2017-10-09T01:18:16.078Z,0
2017-10-09T01:28:29.852Z,0
2017-10-09T01:38:43.937Z,0
2017-10-09T01:48:58.842Z,0
2017-10-09T01:59:13.833Z,0
2017-10-09T02:09:27.890Z,0
2017-10-09T02:19:41.651Z,0
2017-10-09T02:29:56.542Z,0
2017-10-09T02:40:11.840Z,0
2017-10-09T02:50:25.552Z,0
2017-10-09T03:00:39.839Z,0
2017-10-09T03:10:53.931Z,0
2017-10-09T03:21:08.148Z,0
2017-10-09T03:31:21.902Z,0
2017-10-09T03:41:35.956Z,0
2017-10-09T03:51:49.880Z,0
2017-10-09T04:02:04.876Z,0
2017-10-09T04:12:19.794Z,0
2017-10-09T04:22:34.760Z,0
2017-10-09T04:32:49.400Z,0
2017-10-09T04:43:03.933Z,0
2017-10-09T04:53:19.603Z,0
2017-10-09T05:03:33.546Z,0
2017-10-09T05:13:47.602Z,4
2017-10-09T05:24:03.176Z,24
2017-10-09T05:34:17.883Z,124
2017-10-09T05:44:33.214Z,452
2017-10-09T05:54:48.233Z,1040
2017-10-09T06:05:02.823Z,1544
2017-10-09T06:15:16.529Z,2596
2017-10-09T06:25:30.617Z,4096
2017-10-09T06:35:45.314Z,3940
2017-10-09T06:46:00.252Z,4948
2017-10-09T06:56:14.300Z,5656
2017-10-09T07:06:29.379Z,7260
2017-10-09T07:16:44.122Z,7272
2017-10-09T07:26:59.458Z,7272
2017-10-09T07:37:14.725Z,10052
2017-10-09T07:47:29.451Z,10064
2017-10-09T07:57:44.410Z,14928
2017-10-09T08:07:58.993Z,17408
2017-10-09T08:18:13.770Z,18336
2017-10-09T08:28:28.114Z,17184
2017-10-09T08:38:42.900Z,21888
2017-10-09T08:48:57.999Z,13768
2017-10-09T08:59:11.920Z,15896
2017-10-09T09:09:25.674Z,15252
2017-10-09T09:19:39.978Z,19520
2017-10-09T09:29:54.796Z,21856
2017-10-09T09:40:09.783Z,24000
2017-10-09T09:50:24.855Z,25696
2017-10-09T10:00:40.569Z,26048
2017-10-09T10:10:54.972Z,17664
2017-10-09T10:21:09.731Z,28960
2017-10-09T10:31:25.225Z,22560
2017-10-09T10:41:39.019Z,25472
2017-10-09T10:51:53.029Z,27968
2017-10-09T11:02:06.909Z,25344
2017-10-09T11:12:20.752Z,23936
2017-10-09T11:22:36.268Z,21696
2017-10-09T11:32:51.430Z,19808
2017-10-09T11:43:05.927Z,21152
2017-10-09T11:53:20.230Z,27616
2017-10-09T12:03:35.216Z,27264
2017-10-09T12:13:50.568Z,24384
2017-10-09T12:24:04.387Z,18368
2017-10-09T12:34:19.753Z,12924
2017-10-09T12:44:35.472Z,16208
2017-10-09T12:54:50.634Z,14832
2017-10-09T13:05:05.577Z,24224
2017-10-09T13:15:20.078Z,54240
2017-10-09T13:25:34.957Z,19360
2017-10-09T13:35:50.592Z,15468
2017-10-09T13:46:05.673Z,18432
2017-10-09T13:56:21.351Z,13500
2017-10-09T14:06:36.397Z,16084
2017-10-09T14:16:51.638Z,13828
2017-10-09T14:27:06.992Z,9396
2017-10-09T14:47:35.272Z,4248
2017-10-09T14:57:49.159Z,5144
2017-10-09T15:08:02.976Z,4752
2017-10-09T15:18:18.360Z,3504
2017-10-09T15:28:32.706Z,2380
2017-10-09T15:38:46.483Z,1764
2017-10-09T15:49:00.433Z,840
2017-10-09T15:59:14.644Z,604
2017-10-09T16:09:29.554Z,968
2017-10-09T16:19:45.205Z,592
2017-10-09T16:30:00.770Z,120
2017-10-09T16:40:15.066Z,232
2017-10-09T16:50:29.175Z,92
2017-10-09T17:00:44.306Z,20
2017-10-09T17:10:58.283Z,4
2017-10-09T17:21:13.006Z,0
2017-10-09T17:31:28.013Z,0
2017-10-09T17:41:43.309Z,0
2017-10-09T17:51:58.695Z,0
2017-10-09T18:02:13.549Z,0
2017-10-09T18:12:29.097Z,0
2017-10-09T18:22:44.622Z,0
2017-10-09T18:32:59.232Z,0
2017-10-09T18:43:13.467Z,0
2017-10-09T18:53:29.090Z,0
2017-10-09T19:03:44.707Z,0
2017-10-09T19:13:59.877Z,0
2017-10-09T19:24:15.576Z,0
2017-10-09T19:34:30.611Z,0
2017-10-09T19:44:44.910Z,0
2017-10-09T19:55:00.428Z,0
2017-10-09T20:05:15.095Z,0
2017-10-09T20:15:29.243Z,0
2017-10-09T20:25:44.899Z,0
2017-10-09T20:35:59.004Z,0
2017-10-09T20:46:12.992Z,0
2017-10-09T20:56:27.102Z,0
2017-10-09T21:06:42.828Z,0
2017-10-09T21:16:57.499Z,0
2017-10-09T21:27:11.675Z,0
2017-10-09T21:37:27.224Z,0
2017-10-09T21:47:41.987Z,0
2017-10-09T21:57:57.423Z,0
2017-10-09T22:08:13.044Z,0
2017-10-09T22:18:26.888Z,0
2017-10-09T22:28:40.755Z,0
2017-10-09T22:38:54.786Z,0
2017-10-09T22:49:10.444Z,0
2017-10-09T22:59:24.216Z,0
2017-10-09T23:09:37.976Z,0
2017-10-09T23:19:53.392Z,0
2017-10-09T23:30:08.305Z,0
2017-10-09T23:40:23.646Z,0
2017-10-09T23:50:38.183Z,0
